Аэропорт: Шымкент. Шымкент

ICAO: UAII

METAR:
2019/03/26 13:00
UAII 261300Z 29005MPS CAVOK 21/12 Q1013 R28/0///70 NOSIG RMK QFE723/0964
METAR:
2019/03/26 12:18
TAF UAII 261100Z 2612/2712 27003G08MPS 6000 SCT050 BKN100 TX23/2709Z TN08/2701Z 
      TEMPO 2612/2624 16005MPS 3100 BR FU BKN030CB OVC100 
      TEMPO 2700/2712 VRB01MPS -SHRA BKN020CB OVC100